Southwest Florida International Airport
KRSW : rendu visible

Aérodrome :











RETROUVEZ-NOUS SUR...

 
LOGIN :

S'inscrire | Disclaimer

   EN    FR    IT 

 









Légende :    VFR   VFR Marginal   IFR   IFR Intensif   IFR Très Intensif
Visi : 
Plafond : 
>= 8 km
>= 3000ft
5 à 8 km
1000 à 3000 ft
1500m à 5 km
500 à 1000 ft
800 à 1500m
200 à 500 ft
< 800m
< 200 ft
Symboles :   Orages  Brouillard  Fortes neiges  Fortes précipitations  Vent > 20 kt







- Altitude de l'aérodrome : 30 ft
- Code IATA : RSW


KRSW - Southwest Florida International

DERNIER METAR :
  • 241853Z 13012KT 100V170 10SM CLR 29/13 A3000 RMK AO2 SLP155 T02940128

METARs EXPIRÉS :
  • 241753Z 11012G20KT 10SM CLR 29/12 A3002 RMK AO2 SLP164 T02890122 10289 20178 58016
  • 241653Z VRB05G15KT 10SM CLR 27/13 A3005 RMK AO2 SLP172 T02720128

TAF KRSW
Valide du 24 à 18h jusqu'au 25 à 18h UTC


241720Z 2418/2518 09006KT P6SM FEW060 FEW250
FM242000 25007KT P6SM SCT060 SCT250
FM250200 12003KT P6SM BKN250
FM251400 17008KT P6SM SCT030 BKN250
FIR KZMA / Amérique du Nord



MET'MAP, la Météo Aéronautique d'un coup d'oeil ! - Copyright ORBIFLY Décembre 2007 - Disclaimer

ORBIFLY MET'MAP TEAM :

Programmation & Développement : Alexandra Zaïnal
Conception & Développement : Baudouin d'Aumeries
Co-Programmation & Développement : Marc-Olivier Méhu
Soutien technique & logistique : Manuel Goepfert

Contact : metmap@orbifly.com




SOURCES & CREDITS :

   NOAA       Earth
Advisory